createdAt,value
2022-08-11T00:00:42.102Z,9.30
2022-08-11T00:02:52.332Z,9.80
2022-08-11T00:04:57.588Z,5.05
2022-08-11T00:07:02.751Z,3.92
2022-08-11T00:09:10.871Z,4.40
2022-08-11T00:11:18.264Z,7.55
2022-08-11T00:13:23.479Z,5.88
2022-08-11T00:15:29.349Z,8.23
2022-08-11T00:17:35.055Z,6.07
2022-08-11T00:20:11.513Z,5.97
2022-08-11T00:22:14.497Z,5.22
2022-08-11T00:24:18.969Z,5.65
2022-08-11T00:26:24.183Z,4.47
2022-08-11T00:28:30.520Z,6.00
2022-08-11T00:30:44.399Z,4.80
2022-08-11T00:32:56.544Z,4.80
2022-08-11T00:35:54.470Z,6.05
2022-08-11T00:37:25.425Z,6.97
2022-08-11T00:39:30.327Z,5.07
2022-08-11T00:41:49.309Z,5.07
2022-08-11T00:44:16.308Z,5.13
2022-08-11T00:46:52.553Z,5.00
2022-08-11T00:49:31.031Z,7.38
2022-08-11T00:52:05.464Z,6.82
2022-08-11T00:54:43.992Z,5.95
2022-08-11T00:57:36.250Z,11.65
2022-08-11T01:00:07.683Z,4.05
2022-08-11T01:02:30.691Z,3.83
2022-08-11T01:09:38.349Z,5.10
2022-08-11T01:12:14.485Z,8.15
2022-08-11T01:14:40.986Z,15.38
2022-08-11T01:17:15.012Z,13.25
2022-08-11T01:20:47.861Z,23.35
2022-08-11T01:22:41.382Z,16.25
2022-08-11T01:25:20.956Z,14.48
2022-08-11T01:27:57.456Z,7.25
2022-08-11T01:30:37.077Z,8.60
2022-08-11T01:33:13.616Z,7.65
2022-08-11T01:36:00.339Z,4.80
2022-08-11T01:38:44.061Z,3.95
2022-08-11T01:41:21.767Z,4.75
2022-08-11T01:44:14.938Z,4.35
2022-08-11T01:46:40.477Z,5.13
2022-08-11T01:50:01.033Z,5.05
2022-08-11T01:52:06.350Z,6.75
2022-08-11T01:54:35.081Z,5.05
2022-08-11T01:56:51.904Z,4.97
2022-08-11T01:59:21.825Z,6.90
2022-08-11T02:01:54.379Z,4.22
2022-08-11T02:04:40.387Z,6.55
2022-08-11T02:07:09.728Z,5.20
2022-08-11T02:09:49.751Z,5.72
2022-08-11T02:12:00.036Z,5.38
2022-08-11T02:14:29.527Z,6.82
2022-08-11T02:17:00.506Z,6.47
2022-08-11T02:19:49.268Z,5.72
2022-08-11T02:22:16.666Z,4.82
2022-08-11T02:24:41.678Z,4.90
2022-08-11T02:26:56.118Z,7.72
2022-08-11T02:29:29.627Z,5.07
2022-08-11T02:34:44.069Z,4.13
2022-08-11T02:37:26.559Z,4.90
2022-08-11T02:39:35.919Z,4.75
2022-08-11T02:42:33.397Z,3.38
2022-08-11T02:45:05.428Z,6.57
2022-08-11T02:47:34.657Z,5.03
2022-08-11T02:50:05.916Z,4.15
2022-08-11T02:52:54.847Z,5.20
2022-08-11T02:55:56.709Z,4.00
2022-08-11T02:58:30.158Z,3.50
2022-08-11T03:00:47.646Z,4.20
2022-08-11T03:03:09.488Z,5.05
2022-08-11T03:05:47.985Z,3.28
2022-08-11T03:08:26.832Z,8.40
2022-08-11T03:11:10.063Z,3.85
2022-08-11T03:13:45.437Z,3.88
2022-08-11T03:16:23.726Z,3.78
2022-08-11T03:18:50.750Z,3.90
2022-08-11T03:22:01.694Z,5.30
2022-08-11T03:24:09.159Z,5.47
2022-08-11T03:26:31.002Z,5.63
2022-08-11T03:28:45.152Z,4.50
2022-08-11T03:31:25.898Z,5.18
2022-08-11T03:33:53.940Z,3.15
2022-08-11T03:36:22.687Z,4.22
2022-08-11T03:38:30.539Z,6.03
2022-08-11T03:41:06.215Z,3.60
2022-08-11T03:43:58.809Z,4.43
2022-08-11T03:46:46.595Z,4.47
2022-08-11T03:49:19.429Z,3.85
2022-08-11T03:51:54.303Z,4.87
2022-08-11T03:54:30.781Z,3.60
2022-08-11T03:57:09.643Z,2.60
2022-08-11T03:59:46.326Z,4.25
2022-08-11T04:02:24.765Z,4.47
2022-08-11T04:05:01.349Z,5.88
2022-08-11T04:07:39.720Z,6.07
2022-08-11T04:10:08.525Z,8.85
2022-08-11T04:12:37.389Z,6.35
2022-08-11T04:15:16.863Z,4.43
2022-08-11T04:17:51.165Z,4.45
2022-08-11T04:20:33.148Z,4.85
2022-08-11T04:23:09.188Z,4.65
2022-08-11T04:25:58.160Z,4.45
2022-08-11T04:28:29.331Z,5.97
2022-08-11T04:31:10.077Z,3.70
2022-08-11T04:33:42.986Z,3.30
2022-08-11T04:36:20.885Z,5.40
2022-08-11T04:38:49.682Z,5.78
2022-08-11T04:41:17.811Z,4.88
2022-08-11T04:44:02.249Z,5.95
2022-08-11T04:46:43.194Z,4.55
2022-08-11T04:49:34.030Z,6.25
2022-08-11T04:52:10.373Z,5.68
2022-08-11T04:54:53.462Z,4.53
2022-08-11T04:57:16.141Z,6.18
2022-08-11T05:00:07.072Z,4.93
2022-08-11T05:02:43.383Z,7.28
2022-08-11T05:05:34.190Z,3.35
2022-08-11T05:08:10.346Z,5.80
2022-08-11T05:10:46.657Z,3.55
2022-08-11T05:12:57.252Z,5.47
2022-08-11T05:15:13.801Z,4.70
2022-08-11T05:17:50.886Z,8.27
2022-08-11T05:20:07.750Z,3.70
2022-08-11T05:22:25.582Z,5.68
2022-08-11T05:25:01.085Z,5.80
2022-08-11T05:27:19.328Z,5.15
2022-08-11T05:29:42.860Z,4.68
2022-08-11T05:32:14.597Z,3.95
2022-08-11T05:34:46.746Z,4.35
2022-08-11T05:36:56.409Z,7.28
2022-08-11T05:39:33.765Z,5.97
2022-08-11T05:41:53.535Z,6.50
2022-08-11T05:44:21.404Z,3.78
2022-08-11T05:46:41.266Z,4.55
2022-08-11T05:48:57.915Z,3.72
2022-08-11T05:51:16.454Z,5.28
2022-08-11T05:53:45.939Z,3.83
2022-08-11T05:56:05.093Z,5.45
2022-08-11T05:58:12.449Z,5.60
2022-08-11T06:00:19.050Z,4.55
2022-08-11T06:02:24.202Z,3.92
2022-08-11T06:04:31.135Z,7.43
2022-08-11T06:06:35.521Z,4.85
2022-08-11T06:08:41.151Z,4.95
2022-08-11T06:10:47.612Z,3.95
2022-08-11T06:12:56.951Z,5.38
2022-08-11T06:15:20.171Z,7.05
2022-08-11T06:17:38.957Z,4.72
2022-08-11T06:19:46.258Z,26.80
2022-08-11T06:21:50.895Z,55.17
2022-08-11T06:23:57.727Z,81.28
2022-08-11T06:26:05.801Z,77.82
2022-08-11T06:28:15.906Z,67.55
2022-08-11T06:30:40.841Z,79.90
2022-08-11T06:32:47.950Z,24.63
2022-08-11T06:35:33.848Z,15.77
2022-08-11T06:38:11.153Z,36.30
2022-08-11T06:40:42.663Z,26.13
2022-08-11T06:43:19.432Z,16.95
2022-08-11T06:45:49.874Z,12.27
2022-08-11T06:47:54.667Z,9.13
2022-08-11T06:50:12.980Z,6.80
2022-08-11T06:52:34.064Z,4.75
2022-08-11T06:54:42.803Z,5.82
2022-08-11T06:57:28.261Z,5.85
2022-08-11T06:59:38.858Z,5.97
2022-08-11T07:02:07.924Z,4.07
2022-08-11T07:04:13.491Z,7.93
2022-08-11T07:06:51.012Z,4.95
2022-08-11T07:09:36.945Z,5.32
2022-08-11T07:12:14.194Z,7.80
2022-08-11T07:14:39.015Z,4.78
2022-08-11T07:16:43.986Z,8.80
2022-08-11T07:19:00.817Z,4.75
2022-08-11T07:22:00.342Z,2.97
2022-08-11T07:24:02.338Z,5.00
2022-08-11T07:26:19.294Z,5.80
2022-08-11T07:28:41.970Z,11.32
2022-08-11T07:30:46.537Z,4.68
2022-08-11T07:33:01.218Z,4.93
2022-08-11T07:35:18.039Z,9.05
2022-08-11T07:37:23.156Z,4.00
2022-08-11T07:39:34.480Z,3.83
2022-08-11T07:41:40.235Z,3.60
2022-08-11T07:43:50.289Z,5.05
2022-08-11T07:46:09.380Z,3.70
2022-08-11T07:48:28.380Z,9.77
2022-08-11T07:50:44.984Z,8.00
2022-08-11T07:52:52.197Z,33.88
2022-08-11T07:55:13.327Z,11.98
2022-08-11T07:58:10.221Z,5.30
2022-08-11T08:00:11.047Z,8.15
2022-08-11T08:02:33.049Z,3.95
2022-08-11T08:04:49.874Z,3.53
2022-08-11T08:07:06.566Z,3.17
2022-08-11T08:09:25.179Z,3.53
2022-08-11T08:11:41.819Z,3.80
2022-08-11T08:13:58.830Z,3.33
2022-08-11T08:16:16.940Z,5.35
2022-08-11T08:18:26.675Z,3.55
2022-08-11T08:20:56.013Z,5.00
2022-08-11T08:23:04.124Z,5.30
2022-08-11T08:25:09.025Z,3.80
2022-08-11T08:27:15.613Z,4.47
2022-08-11T08:29:32.626Z,4.45
2022-08-11T08:31:37.215Z,5.35
2022-08-11T08:33:43.507Z,4.00
2022-08-11T08:35:55.682Z,6.03
2022-08-11T08:38:03.935Z,4.32
2022-08-11T08:40:10.472Z,7.35
2022-08-11T08:42:20.682Z,3.63
2022-08-11T08:44:41.154Z,3.33
2022-08-11T08:46:50.678Z,3.03
2022-08-11T08:48:56.133Z,5.72
2022-08-11T08:51:15.990Z,5.55
2022-08-11T08:53:23.501Z,6.55
2022-08-11T08:55:30.685Z,7.80
2022-08-11T08:57:39.875Z,4.45
2022-08-11T08:59:48.571Z,4.30
2022-08-11T09:02:08.855Z,5.82
2022-08-11T09:04:17.396Z,5.88
2022-08-11T09:06:26.975Z,5.28
2022-08-11T09:08:36.220Z,2.25
2022-08-11T09:10:40.650Z,3.40
2022-08-11T09:12:49.238Z,4.00
2022-08-11T09:15:08.090Z,4.72
2022-08-11T09:17:13.409Z,5.00
2022-08-11T09:19:20.120Z,6.30
2022-08-11T09:21:44.551Z,5.82
2022-08-11T09:24:21.968Z,5.45
2022-08-11T09:26:44.329Z,5.05
2022-08-11T09:28:50.751Z,6.63
2022-08-11T09:30:56.292Z,3.88
2022-08-11T09:33:04.974Z,4.97
2022-08-11T09:35:10.138Z,4.47
2022-08-11T09:37:28.653Z,3.67
2022-08-11T09:40:03.972Z,4.50
2022-08-11T09:42:11.220Z,4.93
2022-08-11T09:44:33.249Z,3.03
2022-08-11T09:46:41.934Z,4.47
2022-08-11T09:48:47.297Z,6.97
2022-08-11T09:50:53.706Z,6.55
2022-08-11T09:53:35.835Z,4.25
2022-08-11T09:55:26.835Z,3.30
2022-08-11T09:57:43.655Z,4.72
2022-08-11T10:00:09.357Z,3.28
2022-08-11T10:02:19.678Z,8.38
2022-08-11T10:04:35.884Z,2.83
2022-08-11T10:06:55.906Z,3.72
2022-08-11T10:09:00.308Z,3.28
2022-08-11T10:11:05.105Z,4.13
2022-08-11T10:14:31.122Z,4.72
2022-08-11T10:15:39.550Z,3.58
2022-08-11T10:18:21.651Z,3.17
2022-08-11T10:20:29.825Z,5.77
2022-08-11T10:22:47.741Z,6.15
2022-08-11T10:25:08.445Z,3.17
2022-08-11T10:27:14.480Z,5.35
2022-08-11T10:29:37.463Z,7.60
2022-08-11T10:31:57.579Z,7.13
2022-08-11T10:34:06.893Z,3.15
2022-08-11T10:36:16.423Z,7.88
2022-08-11T10:38:21.340Z,4.07
2022-08-11T10:40:25.746Z,5.78
2022-08-11T10:42:57.298Z,7.05
2022-08-11T10:45:03.259Z,3.35
2022-08-11T10:47:24.441Z,6.95
2022-08-11T10:49:29.241Z,4.00
2022-08-11T10:51:50.707Z,5.05
2022-08-11T10:54:12.382Z,3.95
2022-08-11T10:56:30.527Z,3.88
2022-08-11T10:58:53.432Z,4.65
2022-08-11T11:01:00.250Z,4.22
2022-08-11T11:03:22.976Z,4.03
2022-08-11T11:05:34.009Z,7.05
2022-08-11T11:08:23.458Z,6.47
2022-08-11T11:10:28.140Z,2.33
2022-08-11T11:13:00.827Z,5.55
2022-08-11T11:17:58.016Z,5.15
2022-08-11T11:20:05.140Z,4.05
2022-08-11T11:22:25.077Z,2.47
2022-08-11T11:24:43.983Z,2.95
2022-08-11T11:27:20.252Z,3.17
2022-08-11T11:29:56.093Z,4.22
2022-08-11T11:32:26.445Z,4.32
2022-08-11T11:35:03.390Z,6.40
2022-08-11T11:37:08.809Z,5.90
2022-08-11T11:39:16.153Z,4.65
2022-08-11T11:41:27.588Z,5.05
2022-08-11T11:43:32.843Z,6.03
2022-08-11T11:45:38.589Z,6.30
2022-08-11T11:47:45.819Z,3.63
2022-08-11T11:49:51.683Z,4.93
2022-08-11T11:51:59.562Z,5.68
2022-08-11T11:54:07.479Z,11.20
2022-08-11T11:56:16.147Z,4.22
2022-08-11T11:58:34.097Z,7.40
2022-08-11T12:00:53.519Z,5.85
2022-08-11T12:03:01.427Z,7.80
2022-08-11T12:05:07.371Z,7.28
2022-08-11T12:07:26.803Z,5.18
2022-08-11T12:09:32.233Z,74.18
2022-08-11T12:11:51.172Z,76.88
2022-08-11T12:14:02.637Z,35.60
2022-08-11T12:16:34.148Z,19.30
2022-08-11T12:18:39.429Z,9.70
2022-08-11T12:20:46.555Z,10.30
2022-08-11T12:23:04.175Z,6.40
2022-08-11T12:25:25.374Z,6.75
2022-08-11T12:27:31.816Z,6.72
2022-08-11T12:29:41.297Z,8.98
2022-08-11T12:31:49.294Z,5.53
2022-08-11T12:34:01.905Z,6.10
2022-08-11T12:36:07.304Z,8.27
2022-08-11T12:38:12.906Z,6.45
2022-08-11T12:41:12.016Z,7.55
2022-08-11T12:43:21.047Z,5.75
2022-08-11T12:45:32.473Z,5.72
2022-08-11T12:48:38.173Z,4.90
2022-08-11T12:50:37.108Z,6.32
2022-08-11T12:52:50.881Z,7.07
2022-08-11T12:55:14.358Z,6.82
2022-08-11T12:57:51.971Z,5.57
2022-08-11T13:00:09.780Z,8.93
2022-08-11T13:02:35.618Z,4.63
2022-08-11T13:04:56.279Z,4.82
2022-08-11T13:07:04.671Z,5.97
2022-08-11T13:09:10.532Z,7.47
2022-08-11T13:11:56.428Z,5.22
2022-08-11T13:13:58.816Z,4.20
2022-08-11T13:16:04.210Z,7.13
2022-08-11T13:18:09.755Z,5.35
2022-08-11T13:20:18.904Z,4.97
2022-08-11T13:22:25.891Z,5.07
2022-08-11T13:24:31.535Z,5.43
2022-08-11T13:26:46.628Z,7.38
2022-08-11T13:28:56.674Z,6.10
2022-08-11T13:31:14.429Z,10.90
2022-08-11T13:33:21.900Z,4.25
2022-08-11T13:35:28.624Z,4.80
2022-08-11T13:38:18.712Z,5.35
2022-08-11T13:40:04.927Z,4.40
2022-08-11T13:42:10.200Z,4.00
2022-08-11T13:44:24.988Z,8.00
2022-08-11T13:46:32.485Z,4.30
2022-08-11T13:48:39.209Z,3.60
2022-08-11T13:50:58.197Z,4.13
2022-08-11T13:53:05.598Z,5.00
2022-08-11T13:55:33.424Z,9.00
2022-08-11T13:58:18.227Z,6.50
2022-08-11T14:00:25.071Z,7.22
2022-08-11T14:02:33.787Z,5.45
2022-08-11T14:04:47.544Z,7.03
2022-08-11T14:06:56.364Z,4.88
2022-08-11T14:09:01.725Z,4.78
2022-08-11T14:12:22.060Z,6.93
2022-08-11T14:13:48.648Z,3.40
2022-08-11T14:15:53.568Z,4.18
2022-08-11T14:18:08.892Z,5.97
2022-08-11T14:20:40.289Z,6.05
2022-08-11T14:22:39.751Z,6.40
2022-08-11T14:24:50.810Z,6.65
2022-08-11T14:27:01.372Z,4.60
2022-08-11T14:31:29.319Z,5.43
2022-08-11T14:33:58.937Z,7.03
2022-08-11T14:36:11.201Z,4.68
2022-08-11T14:38:16.943Z,5.13
2022-08-11T14:40:35.371Z,6.80
2022-08-11T14:42:52.217Z,6.90
2022-08-11T14:45:14.814Z,5.43
2022-08-11T14:47:23.901Z,8.63
2022-08-11T14:49:30.589Z,5.22
2022-08-11T14:51:35.134Z,6.85
2022-08-11T14:53:39.595Z,6.55
2022-08-11T14:56:08.411Z,5.28
2022-08-11T14:58:21.434Z,5.60
2022-08-11T15:00:28.075Z,5.10
2022-08-11T15:02:47.090Z,6.63
2022-08-11T15:04:53.941Z,6.68
2022-08-11T15:07:00.328Z,5.63
2022-08-11T15:09:08.890Z,7.70
2022-08-11T15:11:27.950Z,6.60
2022-08-11T15:13:37.264Z,8.70
2022-08-11T15:15:54.042Z,5.45
2022-08-11T15:18:02.004Z,8.25
2022-08-11T15:20:24.198Z,5.50
2022-08-11T15:22:41.058Z,8.40
2022-08-11T15:24:47.305Z,9.45
2022-08-11T15:27:05.908Z,9.77
2022-08-11T15:29:23.629Z,8.30
2022-08-11T15:31:31.206Z,6.88
2022-08-11T15:33:49.834Z,10.98
2022-08-11T15:36:07.444Z,10.15
2022-08-11T15:38:12.779Z,8.98
2022-08-11T15:40:39.151Z,13.73
2022-08-11T15:43:25.834Z,10.13
2022-08-11T15:45:45.538Z,12.77
2022-08-11T15:48:05.562Z,11.65
2022-08-11T15:50:16.912Z,8.40
2022-08-11T15:52:24.161Z,8.15
2022-08-11T15:54:32.187Z,10.30
2022-08-11T15:56:39.647Z,8.23
2022-08-11T15:59:40.821Z,10.77
2022-08-11T16:04:09.040Z,11.10
2022-08-11T16:06:14.744Z,9.68
2022-08-11T16:08:32.887Z,11.48
2022-08-11T16:13:06.346Z,8.60
2022-08-11T16:15:26.129Z,9.93
2022-08-11T16:17:33.942Z,9.48
2022-08-11T16:19:38.737Z,10.68
2022-08-11T16:21:44.659Z,13.48
2022-08-11T16:23:51.588Z,9.43
2022-08-11T16:25:58.259Z,10.25
2022-08-11T16:28:23.719Z,9.68
2022-08-11T16:30:28.685Z,9.13
2022-08-11T16:32:33.157Z,8.80
2022-08-11T16:34:52.385Z,11.05
2022-08-11T16:37:11.276Z,9.40
2022-08-11T16:39:19.641Z,11.45
2022-08-11T16:41:38.946Z,10.38
2022-08-11T16:43:58.432Z,9.35
2022-08-11T16:46:15.749Z,10.85
2022-08-11T16:48:36.244Z,11.63
2022-08-11T16:50:43.808Z,12.55
2022-08-11T16:52:48.568Z,10.40
2022-08-11T16:54:54.838Z,8.98
2022-08-11T16:57:21.077Z,8.68
2022-08-11T16:59:37.773Z,9.63
2022-08-11T17:01:56.964Z,10.00
2022-08-11T17:04:45.715Z,7.85
2022-08-11T17:07:03.865Z,9.07
2022-08-11T17:09:42.540Z,10.80
2022-08-11T17:12:03.941Z,7.63
2022-08-11T17:14:15.927Z,9.13
2022-08-11T17:16:24.769Z,9.50
2022-08-11T17:18:41.482Z,6.75
2022-08-11T17:20:47.721Z,8.93
2022-08-11T17:23:06.672Z,8.60
2022-08-11T17:25:18.031Z,10.98
2022-08-11T17:27:23.823Z,7.43
2022-08-11T17:29:53.651Z,8.60
2022-08-11T17:32:12.977Z,10.20
2022-08-11T17:34:31.752Z,9.52
2022-08-11T17:36:41.548Z,8.10
2022-08-11T17:38:48.984Z,9.18
2022-08-11T17:41:23.269Z,10.20
2022-08-11T17:43:42.793Z,7.55
2022-08-11T17:45:59.738Z,8.32
2022-08-11T17:48:18.707Z,7.93
2022-08-11T17:50:25.056Z,6.70
2022-08-11T17:52:42.269Z,10.70
2022-08-11T17:54:59.937Z,8.48
2022-08-11T17:57:20.467Z,9.02
2022-08-11T17:59:38.103Z,9.43
2022-08-11T18:01:44.447Z,7.43
2022-08-11T18:03:53.263Z,7.38
2022-08-11T18:06:03.919Z,9.55
2022-08-11T18:08:24.045Z,8.30
2022-08-11T18:10:46.684Z,9.63
2022-08-11T18:13:06.832Z,9.95
2022-08-11T18:15:27.170Z,10.07
2022-08-11T18:17:51.326Z,8.40
2022-08-11T18:20:09.658Z,7.65
2022-08-11T18:22:33.499Z,9.05
2022-08-11T18:24:53.572Z,10.30
2022-08-11T18:27:14.021Z,8.35
2022-08-11T18:29:31.752Z,9.93
2022-08-11T18:32:03.344Z,7.22
2022-08-11T18:34:23.041Z,9.73
2022-08-11T18:36:45.380Z,11.07
2022-08-11T18:39:04.334Z,6.47
2022-08-11T18:41:22.097Z,9.48
2022-08-11T18:43:41.522Z,6.80
2022-08-11T18:46:06.503Z,6.50
2022-08-11T18:48:26.386Z,6.85
2022-08-11T18:51:00.663Z,7.22
2022-08-11T18:53:29.811Z,7.05
2022-08-11T18:55:46.559Z,8.65
2022-08-11T18:58:05.250Z,6.50
2022-08-11T19:00:24.140Z,8.93
2022-08-11T19:02:48.641Z,7.38
2022-08-11T19:05:06.288Z,9.00
2022-08-11T19:07:25.676Z,8.25
2022-08-11T19:09:42.425Z,8.45
2022-08-11T19:12:02.949Z,7.40
2022-08-11T19:14:21.824Z,5.53
2022-08-11T19:16:38.860Z,6.88
2022-08-11T19:18:57.445Z,7.07
2022-08-11T19:21:16.444Z,7.00
2022-08-11T19:23:34.587Z,7.18
2022-08-11T19:25:53.487Z,6.93
2022-08-11T19:28:12.130Z,6.45
2022-08-11T19:30:29.006Z,5.40
2022-08-11T19:32:45.737Z,8.00
2022-08-11T19:35:05.489Z,6.82
2022-08-11T19:37:24.677Z,7.07
2022-08-11T19:39:44.480Z,5.43
2022-08-11T19:42:03.279Z,6.40
2022-08-11T19:44:19.833Z,7.68
2022-08-11T19:46:39.104Z,4.88
2022-08-11T19:48:58.266Z,5.70
2022-08-11T19:51:14.961Z,7.20
2022-08-11T19:53:34.394Z,5.97
2022-08-11T19:55:53.238Z,9.85
2022-08-11T19:58:10.269Z,6.97
2022-08-11T20:00:31.717Z,7.80
2022-08-11T20:02:48.593Z,7.13
2022-08-11T20:05:05.573Z,7.32
2022-08-11T20:07:23.977Z,6.82
2022-08-11T20:10:06.208Z,6.63
2022-08-11T20:12:24.210Z,6.68
2022-08-11T20:14:45.723Z,5.50
2022-08-11T20:17:05.212Z,5.55
2022-08-11T20:19:25.984Z,6.97
2022-08-11T20:22:01.796Z,5.90
2022-08-11T20:24:23.282Z,6.53
2022-08-11T20:26:46.187Z,8.35
2022-08-11T20:29:10.829Z,7.22
2022-08-11T20:31:29.559Z,4.72
2022-08-11T20:33:46.501Z,7.88
2022-08-11T20:36:08.778Z,6.72
2022-08-11T20:38:28.792Z,5.30
2022-08-11T20:40:47.959Z,8.00
2022-08-11T20:43:05.980Z,7.93
2022-08-11T20:45:56.753Z,6.93
2022-08-11T20:48:18.507Z,6.05
2022-08-11T20:50:45.755Z,6.00
2022-08-11T20:53:04.685Z,5.53
2022-08-11T20:55:45.591Z,5.80
2022-08-11T20:58:05.217Z,7.25
2022-08-11T21:00:38.890Z,4.53
2022-08-11T21:02:56.374Z,7.35
2022-08-11T21:05:21.678Z,8.90
2022-08-11T21:08:00.641Z,6.57
2022-08-11T21:10:23.367Z,7.28
2022-08-11T21:12:41.654Z,7.97
2022-08-11T21:15:04.824Z,6.55
2022-08-11T21:17:27.005Z,7.72
2022-08-11T21:20:00.010Z,4.15
2022-08-11T21:22:28.107Z,4.97
2022-08-11T21:24:48.059Z,7.15
2022-08-11T21:27:06.152Z,7.53
2022-08-11T21:29:23.260Z,4.38
2022-08-11T21:31:40.297Z,5.30
2022-08-11T21:33:57.931Z,4.63
2022-08-11T21:36:18.703Z,5.05
2022-08-11T21:38:36.165Z,5.65
2022-08-11T21:40:56.470Z,4.78
2022-08-11T21:43:16.869Z,4.80
2022-08-11T21:45:34.291Z,4.32
2022-08-11T21:48:01.182Z,5.53
2022-08-11T21:50:22.956Z,5.53
2022-08-11T21:52:40.059Z,8.23
2022-08-11T21:54:56.783Z,5.22
2022-08-11T21:57:16.849Z,7.90
2022-08-11T21:59:37.162Z,5.68
2022-08-11T22:01:53.930Z,6.25
2022-08-11T22:04:14.460Z,5.22
2022-08-11T22:06:31.304Z,6.78
2022-08-11T22:08:47.906Z,11.57
2022-08-11T22:11:08.546Z,8.02
2022-08-11T22:13:27.525Z,5.55
2022-08-11T22:15:44.139Z,6.55
2022-08-11T22:18:04.860Z,5.90
2022-08-11T22:20:21.937Z,5.93
2022-08-11T22:22:52.465Z,5.35
2022-08-11T22:25:16.609Z,6.07
2022-08-11T22:27:35.452Z,4.43
2022-08-11T22:29:52.084Z,6.03
2022-08-11T22:32:10.581Z,6.15
2022-08-11T22:34:27.367Z,4.50
2022-08-11T22:36:44.022Z,5.90
2022-08-11T22:39:05.491Z,5.22
2022-08-11T22:41:21.993Z,5.50
2022-08-11T22:43:39.051Z,7.70
2022-08-11T22:45:57.719Z,4.55
2022-08-11T22:48:15.286Z,5.35
2022-08-11T22:50:31.999Z,10.43
2022-08-11T22:52:52.380Z,5.20
2022-08-11T22:57:39.801Z,6.85
2022-08-11T22:59:59.945Z,7.18
2022-08-11T23:02:17.477Z,5.50
2022-08-11T23:04:34.369Z,5.97
2022-08-11T23:06:50.940Z,6.30
2022-08-11T23:09:07.882Z,6.00
2022-08-11T23:11:24.733Z,4.75
2022-08-11T23:13:45.940Z,8.43
2022-08-11T23:16:02.541Z,3.47
2022-08-11T23:18:19.180Z,5.00
2022-08-11T23:20:52.909Z,6.47
2022-08-11T23:23:11.350Z,7.15
2022-08-11T23:25:28.054Z,5.35
2022-08-11T23:27:47.894Z,5.47
2022-08-11T23:30:05.154Z,5.70
2022-08-11T23:32:21.721Z,6.72
2022-08-11T23:35:04.223Z,2.97
2022-08-11T23:37:26.798Z,9.13
2022-08-11T23:39:46.190Z,5.63
2022-08-11T23:42:05.101Z,6.47
2022-08-11T23:44:22.358Z,5.80
2022-08-11T23:46:41.086Z,4.97
2022-08-11T23:49:00.374Z,7.65
2022-08-11T23:51:18.634Z,4.72
2022-08-11T23:53:37.291Z,4.63
2022-08-11T23:55:55.831Z,5.63
2022-08-11T23:58:12.537Z,7.40
